Time;durP1;ratioP1;P1;durP2;ratioP2;P2;SDS_P1;SDS_P2;PMS_P1;PMS_P2;Temp;Humidity;BMP_temperature;BMP_pressure;BME280_temperature;BME280_humidity;BME280_pressure;Samples;Min_cycle;Max_cycle;Signal;HPM_P1;HPM_P2
2023/12/09 00:00:42;;;;;;;3.70;2.40;;;6.70;99.90;;;;;;5016353;28;20681;-75
2023/12/09 00:03:08;;;;;;;1.83;1.73;;;6.70;99.90;;;;;;5016833;28;20132;-75
2023/12/09 00:05:34;;;;;;;5.05;2.17;;;6.70;99.90;;;;;;5011853;28;20072;-75
2023/12/09 00:08:00;;;;;;;2.85;1.65;;;6.70;99.90;;;;;;5023897;28;20049;-75
2023/12/09 00:10:28;;;;;;;4.60;3.67;;;6.60;99.90;;;;;;5022146;28;20494;-75
2023/12/09 00:12:54;;;;;;;4.85;1.23;;;6.60;99.90;;;;;;5042671;28;20151;-74
2023/12/09 00:15:20;;;;;;;1.42;1.33;;;6.70;99.90;;;;;;5027523;28;20057;-74
2023/12/09 00:17:45;;;;;;;2.67;2.47;;;6.70;99.90;;;;;;5013102;28;20045;-75
2023/12/09 00:20:12;;;;;;;2.70;2.47;;;6.70;99.90;;;;;;5020253;28;20037;-75
2023/12/09 00:22:39;;;;;;;2.15;1.98;;;6.70;99.90;;;;;;5027999;28;20037;-74
2023/12/09 00:25:06;;;;;;;1.90;1.70;;;6.70;99.90;;;;;;5036127;28;20546;-74
2023/12/09 00:27:32;;;;;;;3.10;2.17;;;6.70;99.90;;;;;;5035487;28;20053;-74
2023/12/09 00:29:57;;;;;;;2.00;1.67;;;6.70;99.90;;;;;;5004950;28;20052;-74
2023/12/09 00:32:23;;;;;;;1.67;1.58;;;6.70;99.90;;;;;;5015734;28;20140;-74
2023/12/09 00:34:49;;;;;;;3.22;2.05;;;6.80;99.90;;;;;;5024166;28;20152;-74
2023/12/09 00:37:14;;;;;;;4.30;3.13;;;6.80;99.90;;;;;;5011835;28;20046;-74
2023/12/09 00:39:41;;;;;;;2.70;2.45;;;6.80;99.90;;;;;;5020708;28;20093;-75
2023/12/09 00:42:07;;;;;;;3.20;2.97;;;6.70;99.90;;;;;;5018565;28;20502;-75
2023/12/09 00:44:32;;;;;;;3.35;2.10;;;6.80;99.90;;;;;;5013505;28;20045;-75
2023/12/09 00:46:58;;;;;;;2.53;2.33;;;6.80;99.90;;;;;;5043234;28;20041;-74
2023/12/09 00:49:24;;;;;;;4.82;2.45;;;6.80;99.90;;;;;;5026268;28;20462;-75
2023/12/09 00:51:49;;;;;;;2.38;2.20;;;6.80;99.90;;;;;;5024812;28;20096;-75
2023/12/09 00:54:15;;;;;;;2.38;2.22;;;6.80;99.90;;;;;;5022609;28;20045;-75
2023/12/09 00:56:41;;;;;;;9.15;2.65;;;6.80;99.90;;;;;;4999114;28;20052;-74
2023/12/09 00:59:07;;;;;;;1.50;1.40;;;6.80;99.90;;;;;;5025458;28;20053;-75
2023/12/09 01:01:35;;;;;;;2.17;1.90;;;6.70;99.90;;;;;;5012199;28;20049;-75
2023/12/09 01:04:01;;;;;;;;;;;6.80;99.90;;;;;;5027126;28;20071;-74
2023/12/09 01:06:28;;;;;;;1.48;1.42;;;6.80;99.90;;;;;;5016871;28;19921;-74
2023/12/09 01:08:54;;;;;;;5.35;3.53;;;6.80;99.90;;;;;;5026373;28;20046;-74
2023/12/09 01:11:20;;;;;;;4.40;2.42;;;6.80;99.90;;;;;;5015711;28;20045;-75
2023/12/09 01:13:45;;;;;;;3.95;2.60;;;6.70;99.90;;;;;;5041247;28;20091;-75
2023/12/09 01:16:11;;;;;;;4.82;2.50;;;6.80;99.90;;;;;;5018663;28;20442;-75
2023/12/09 01:18:36;;;;;;;2.45;2.10;;;6.80;99.90;;;;;;5019304;28;20076;-75
2023/12/09 01:21:02;;;;;;;6.43;4.22;;;6.70;99.90;;;;;;5025048;28;20045;-75
2023/12/09 01:23:28;;;;;;;5.60;3.42;;;6.70;99.90;;;;;;5036663;28;20049;-75
2023/12/09 01:25:54;;;;;;;6.63;4.20;;;6.70;99.90;;;;;;5013189;28;20521;-74
2023/12/09 01:28:19;;;;;;;1.35;1.33;;;6.70;99.90;;;;;;5022928;28;20445;-74
2023/12/09 01:30:45;;;;;;;2.75;2.15;;;6.70;99.90;;;;;;5022918;28;20137;-74
2023/12/09 01:33:11;;;;;;;11.43;2.30;;;6.70;99.90;;;;;;5010510;28;20042;-74
2023/12/09 01:35:36;;;;;;;4.47;2.38;;;6.70;99.90;;;;;;5019692;28;20130;-74
2023/12/09 01:38:02;;;;;;;2.30;2.13;;;6.70;99.90;;;;;;5016245;28;20073;-74
2023/12/09 01:40:28;;;;;;;3.28;2.95;;;6.80;99.90;;;;;;5012862;28;20064;-74
2023/12/09 01:42:53;;;;;;;2.80;2.60;;;6.80;99.90;;;;;;5041659;28;20056;-74
2023/12/09 01:45:20;;;;;;;3.40;2.30;;;6.80;99.90;;;;;;5026231;28;20060;-74
2023/12/09 01:47:47;;;;;;;2.33;1.92;;;6.80;99.90;;;;;;5019141;28;20056;-74
2023/12/09 01:50:14;;;;;;;2.45;1.95;;;6.80;99.90;;;;;;5015264;28;20409;-74
2023/12/09 01:52:40;;;;;;;3.08;2.90;;;6.80;99.90;;;;;;5025875;28;20085;-74
2023/12/09 01:55:09;;;;;;;3.78;2.72;;;6.80;99.90;;;;;;5015893;28;20136;-74
2023/12/09 01:57:35;;;;;;;2.78;2.58;;;6.70;99.90;;;;;;5021878;28;20557;-74
2023/12/09 02:00:03;;;;;;;2.55;1.17;;;6.70;99.90;;;;;;5023414;28;20099;-74
2023/12/09 02:02:29;;;;;;;11.23;3.78;;;6.70;99.90;;;;;;5013289;28;20124;-74
2023/12/09 02:04:56;;;;;;;4.30;2.72;;;6.70;99.90;;;;;;5020509;28;20120;-74
2023/12/09 02:07:21;;;;;;;1.77;1.67;;;6.80;99.90;;;;;;5017868;28;20041;-74
2023/12/09 02:09:47;;;;;;;8.57;2.33;;;6.80;99.90;;;;;;5013515;28;20049;-74
2023/12/09 02:12:28;;;;;;;4.43;2.80;;;6.70;99.90;;;;;;5031873;28;20063;-74
2023/12/09 02:15:03;;;;;;;6.90;1.95;;;6.70;99.90;;;;;;5030630;28;20049;-74
2023/12/09 02:17:53;;;;;;;0.85;0.85;;;6.70;99.90;;;;;;5021360;28;20047;-74
2023/12/09 02:20:19;;;;;;;1.67;1.58;;;6.70;99.90;;;;;;5029131;28;20128;-74
2023/12/09 02:22:45;;;;;;;2.40;1.83;;;6.80;99.90;;;;;;5011334;28;20076;-74
2023/12/09 02:25:11;;;;;;;1.75;1.63;;;6.70;99.90;;;;;;5016479;28;20503;-74
2023/12/09 02:27:54;;;;;;;1.60;1.50;;;6.70;99.90;;;;;;5018285;28;20052;-74
2023/12/09 02:30:43;;;;;;;7.20;2.85;;;6.70;99.90;;;;;;5019742;28;20124;-74
2023/12/09 02:33:11;;;;;;;1.17;1.15;;;6.70;99.90;;;;;;5009321;28;20049;-74
2023/12/09 02:35:40;;;;;;;1.05;1.05;;;6.70;99.90;;;;;;5019009;28;20133;-74
2023/12/09 02:38:06;;;;;;;1.48;1.38;;;6.70;99.90;;;;;;5025556;28;20436;-74
2023/12/09 02:40:32;;;;;;;3.05;2.85;;;6.70;99.90;;;;;;5034378;28;20141;-74
2023/12/09 02:42:59;;;;;;;0.70;0.70;;;6.70;99.90;;;;;;5025001;28;20155;-74
2023/12/09 02:45:25;;;;;;;1.75;1.65;;;6.80;99.90;;;;;;5010339;28;20049;-74
2023/12/09 02:47:50;;;;;;;2.33;2.13;;;6.80;99.90;;;;;;5018972;28;20049;-74
2023/12/09 02:50:16;;;;;;;4.95;3.05;;;6.70;99.90;;;;;;5011747;28;20573;-74
2023/12/09 02:52:41;;;;;;;4.13;3.00;;;6.70;99.90;;;;;;5026797;28;20041;-75
2023/12/09 02:55:08;;;;;;;4.95;2.58;;;6.80;99.90;;;;;;5013809;28;20483;-74
2023/12/09 02:57:34;;;;;;;1.73;1.63;;;6.80;99.90;;;;;;5021191;28;20057;-74
2023/12/09 02:59:59;;;;;;;1.10;1.10;;;6.80;99.90;;;;;;5007865;28;20052;-74
2023/12/09 03:02:25;;;;;;;2.47;2.28;;;6.80;99.90;;;;;;5020881;28;20073;-74
2023/12/09 03:04:51;;;;;;;1.20;1.20;;;6.80;99.90;;;;;;5008750;28;20041;-74
2023/12/09 03:07:20;;;;;;;2.30;1.83;;;6.80;99.90;;;;;;5015518;28;20107;-74
2023/12/09 03:09:49;;;;;;;2.58;2.42;;;6.80;99.90;;;;;;5012205;28;20050;-74
2023/12/09 03:12:14;;;;;;;1.00;1.00;;;6.80;99.90;;;;;;5031919;28;20124;-74
2023/12/09 03:14:40;;;;;;;1.30;1.20;;;6.80;99.90;;;;;;5030038;28;20128;-74
2023/12/09 03:17:06;;;;;;;2.15;2.05;;;6.80;99.90;;;;;;5006322;28;20487;-73
2023/12/09 03:19:31;;;;;;;3.17;2.88;;;6.80;99.90;;;;;;5011403;28;20111;-74
2023/12/09 03:21:58;;;;;;;3.53;1.88;;;6.70;99.90;;;;;;5010013;28;20042;-74
2023/12/09 03:24:24;;;;;;;2.58;2.38;;;6.80;99.90;;;;;;5025525;28;20049;-74
2023/12/09 03:26:51;;;;;;;2.25;1.95;;;6.80;99.90;;;;;;5016027;28;20405;-74
2023/12/09 03:29:17;;;;;;;1.30;1.30;;;6.80;99.90;;;;;;5022779;28;20045;-73
2023/12/09 03:31:42;;;;;;;1.98;1.88;;;6.80;99.90;;;;;;5021007;28;20042;-74
2023/12/09 03:34:08;;;;;;;2.67;1.88;;;6.80;99.90;;;;;;5027248;28;20052;-74
2023/12/09 03:36:33;;;;;;;1.05;1.00;;;6.80;99.90;;;;;;5039395;28;20085;-73
2023/12/09 03:38:59;;;;;;;2.05;1.95;;;6.80;99.90;;;;;;5028996;28;20088;-74
2023/12/09 03:41:25;;;;;;;3.70;2.13;;;6.70;99.90;;;;;;5012565;28;20050;-74
2023/12/09 03:43:51;;;;;;;1.00;0.88;;;6.70;99.90;;;;;;5024134;28;20057;-74
2023/12/09 03:46:16;;;;;;;2.25;2.13;;;6.80;99.90;;;;;;5017987;28;20088;-74
2023/12/09 03:48:42;;;;;;;0.55;0.55;;;6.80;99.90;;;;;;5017194;28;20137;-73
2023/12/09 03:51:07;;;;;;;3.13;1.77;;;6.70;99.90;;;;;;5021455;28;20088;-73
2023/12/09 03:53:33;;;;;;;1.80;1.38;;;6.70;99.90;;;;;;5029248;28;20037;-74
2023/12/09 03:55:59;;;;;;;2.08;1.95;;;6.70;99.90;;;;;;5025275;28;20164;-74
2023/12/09 03:58:25;;;;;;;3.60;2.25;;;6.70;99.90;;;;;;5022691;28;20521;-74
2023/12/09 04:00:50;;;;;;;7.85;2.03;;;6.70;99.90;;;;;;5019927;28;20049;-74
2023/12/09 04:03:16;;;;;;;4.03;2.55;;;6.70;99.90;;;;;;5017329;28;20041;-74
2023/12/09 04:05:42;;;;;;;1.77;1.45;;;6.70;99.90;;;;;;5014021;28;20042;-73
2023/12/09 04:08:08;;;;;;;1.85;1.63;;;6.80;99.90;;;;;;5025606;28;20049;-73
2023/12/09 04:10:34;;;;;;;2.03;1.90;;;6.70;99.90;;;;;;5033761;28;20429;-73
2023/12/09 04:12:59;;;;;;;3.28;1.80;;;6.70;99.90;;;;;;5047974;28;20049;-74
2023/12/09 04:15:27;;;;;;;2.63;1.70;;;6.80;99.90;;;;;;5010529;28;20383;-74
2023/12/09 04:17:53;;;;;;;0.65;0.65;;;6.70;99.90;;;;;;5015486;28;20049;-74
2023/12/09 04:20:19;;;;;;;4.28;1.42;;;6.70;99.90;;;;;;5020548;28;20054;-74
2023/12/09 04:22:45;;;;;;;3.63;2.30;;;6.70;99.90;;;;;;5028657;28;20041;-73
2023/12/09 04:25:10;;;;;;;1.92;1.52;;;6.70;99.90;;;;;;5018932;28;20136;-73
2023/12/09 04:27:36;;;;;;;2.60;1.67;;;6.70;99.90;;;;;;5021242;28;20092;-73
2023/12/09 04:30:04;;;;;;;1.63;1.52;;;6.70;99.90;;;;;;5027110;28;20106;-73
2023/12/09 04:32:30;;;;;;;1.02;1.02;;;6.70;99.90;;;;;;5040219;28;20041;-73
2023/12/09 04:34:57;;;;;;;1.95;1.77;;;6.70;99.90;;;;;;5026057;28;20494;-73
2023/12/09 04:37:23;;;;;;;3.50;2.67;;;6.70;99.90;;;;;;5012961;28;20338;-74
2023/12/09 04:39:48;;;;;;;1.90;1.35;;;6.70;99.90;;;;;;5024851;28;20045;-73
2023/12/09 04:42:14;;;;;;;1.73;1.63;;;6.60;99.90;;;;;;5014392;28;20053;-73
2023/12/09 04:44:40;;;;;;;9.07;2.38;;;6.70;99.90;;;;;;5018454;28;20538;-73
2023/12/09 04:47:06;;;;;;;2.33;1.77;;;6.60;99.90;;;;;;5004845;28;20042;-73
2023/12/09 04:49:32;;;;;;;4.78;3.05;;;6.70;99.90;;;;;;5013291;28;20107;-73
2023/12/09 04:51:58;;;;;;;2.58;2.10;;;6.70;99.90;;;;;;5009423;28;20510;-73
2023/12/09 04:54:23;;;;;;;2.72;2.53;;;6.70;99.90;;;;;;5024528;28;20053;-73
2023/12/09 04:56:49;;;;;;;2.13;1.45;;;6.70;99.90;;;;;;5024359;28;20049;-74
2023/12/09 04:59:15;;;;;;;2.08;1.92;;;6.70;99.90;;;;;;5022081;28;20457;-73
2023/12/09 05:01:41;;;;;;;1.45;1.38;;;6.70;99.90;;;;;;5010733;28;20095;-74
2023/12/09 05:04:07;;;;;;;2.05;1.95;;;6.60;99.90;;;;;;5023962;28;20120;-74
2023/12/09 05:06:33;;;;;;;2.85;2.65;;;6.60;99.90;;;;;;5027571;28;20048;-73
2023/12/09 05:08:58;;;;;;;2.53;2.33;;;6.70;99.90;;;;;;5033165;28;20146;-73
2023/12/09 05:11:24;;;;;;;2.15;2.05;;;6.70;99.90;;;;;;5015011;28;20053;-73
2023/12/09 05:13:49;;;;;;;2.13;1.70;;;6.70;99.90;;;;;;5040783;28;20109;-73
2023/12/09 05:16:15;;;;;;;2.05;1.85;;;6.60;99.90;;;;;;5017328;28;20058;-73
2023/12/09 05:18:41;;;;;;;1.10;1.10;;;6.70;99.90;;;;;;5021839;28;20406;-74
2023/12/09 05:21:07;;;;;;;1.02;1.00;;;6.70;99.90;;;;;;5020339;28;20400;-73
2023/12/09 05:23:33;;;;;;;2.83;2.45;;;6.60;99.90;;;;;;5026886;28;20041;-74
2023/12/09 05:25:59;;;;;;;2.22;1.48;;;6.60;99.90;;;;;;5015216;28;20073;-73
2023/12/09 05:28:24;;;;;;;2.10;2.00;;;6.60;99.90;;;;;;5042206;28;20049;-73
2023/12/09 05:30:50;;;;;;;2.33;2.00;;;6.60;99.90;;;;;;5026894;28;20048;-73
2023/12/09 05:33:16;;;;;;;3.45;1.60;;;6.60;99.90;;;;;;5011002;28;20046;-73
2023/12/09 05:35:41;;;;;;;1.27;1.27;;;6.60;99.90;;;;;;5019883;28;20038;-74
2023/12/09 05:38:07;;;;;;;3.17;2.88;;;6.50;99.90;;;;;;5017932;28;20054;-73
2023/12/09 05:40:32;;;;;;;1.08;1.05;;;6.50;99.90;;;;;;5012773;28;20487;-73
2023/12/09 05:42:58;;;;;;;2.85;2.65;;;6.50;99.90;;;;;;5023443;28;20045;-73
2023/12/09 05:45:24;;;;;;;1.63;1.50;;;6.50;99.90;;;;;;5011888;28;20487;-73
2023/12/09 05:47:49;;;;;;;2.25;2.05;;;6.60;99.90;;;;;;5026767;28;20045;-73
2023/12/09 05:50:15;;;;;;;1.95;1.52;;;6.60;99.90;;;;;;5026600;28;20428;-73
2023/12/09 05:52:41;;;;;;;3.38;2.45;;;6.50;99.90;;;;;;5026373;28;20045;-73
2023/12/09 05:55:07;;;;;;;5.38;1.48;;;6.50;99.90;;;;;;5014834;28;20046;-73
2023/12/09 05:57:32;;;;;;;1.92;1.83;;;6.60;99.90;;;;;;5022260;28;20052;-73
2023/12/09 05:59:58;;;;;;;0.88;0.77;;;6.60;99.90;;;;;;5024630;28;20053;-73
2023/12/09 06:02:24;;;;;;;3.80;2.53;;;6.60;99.90;;;;;;5021089;28;20045;-73
2023/12/09 06:04:49;;;;;;;1.27;1.08;;;6.60;99.90;;;;;;5030134;28;20069;-73
2023/12/09 06:07:15;;;;;;;2.53;1.67;;;6.60;99.90;;;;;;5016286;28;20091;-73
2023/12/09 06:09:41;;;;;;;4.45;2.55;;;6.60;99.90;;;;;;5015264;28;20477;-73
2023/12/09 06:12:07;;;;;;;5.15;3.05;;;6.60;99.90;;;;;;5031295;28;20091;-73
2023/12/09 06:14:32;;;;;;;4.00;2.58;;;6.60;99.90;;;;;;5032803;28;20081;-73
2023/12/09 06:16:58;;;;;;;1.67;1.58;;;6.60;99.90;;;;;;5011384;28;20080;-73
2023/12/09 06:19:23;;;;;;;2.00;1.90;;;6.60;99.90;;;;;;5022899;28;20053;-73
2023/12/09 06:21:49;;;;;;;0.88;0.88;;;6.60;99.90;;;;;;5020886;28;20368;-73
2023/12/09 06:24:15;;;;;;;0.65;0.65;;;6.50;99.90;;;;;;5042557;28;20091;-73
2023/12/09 06:26:44;;;;;;;3.03;1.90;;;6.50;99.90;;;;;;5026087;28;20045;-73
2023/12/09 06:29:18;;;;;;;1.67;1.58;;;6.50;99.90;;;;;;5020118;28;20050;-74
2023/12/09 06:31:44;;;;;;;4.32;1.73;;;6.50;99.90;;;;;;5018361;28;20056;-73
2023/12/09 06:34:10;;;;;;;1.50;1.38;;;6.50;99.90;;;;;;5017956;28;20045;-73
2023/12/09 06:36:35;;;;;;;4.10;1.42;;;6.50;99.90;;;;;;5011636;28;20084;-73
2023/12/09 06:39:01;;;;;;;1.15;1.15;;;6.50;99.90;;;;;;5022592;28;20038;-73
2023/12/09 06:41:27;;;;;;;1.50;1.40;;;6.50;99.90;;;;;;5011764;28;20210;-73
2023/12/09 06:43:53;;;;;;;2.58;1.13;;;6.50;99.90;;;;;;5026133;28;20053;-73
2023/12/09 06:46:18;;;;;;;0.73;0.73;;;6.50;99.90;;;;;;5026113;28;20410;-73
2023/12/09 06:48:45;;;;;;;1.88;1.77;;;6.50;99.90;;;;;;5011221;28;20049;-74
2023/12/09 06:51:17;;;;;;;1.30;1.23;;;6.50;99.90;;;;;;5020958;28;20053;-74
2023/12/09 06:53:43;;;;;;;2.22;2.03;;;6.40;99.90;;;;;;5025943;28;20114;-73
2023/12/09 06:56:17;;;;;;;3.22;2.22;;;6.40;99.90;;;;;;5010503;28;20151;-73
2023/12/09 06:58:43;;;;;;;3.25;1.45;;;6.40;99.90;;;;;;5036485;28;20067;-73
2023/12/09 07:01:08;;;;;;;4.03;2.30;;;6.50;99.90;;;;;;5039314;28;20318;-73
2023/12/09 07:03:37;;;;;;;2.28;2.05;;;6.40;99.90;;;;;;5015443;28;20537;-74
2023/12/09 07:06:04;;;;;;;3.08;1.67;;;6.40;99.90;;;;;;5012585;28;20137;-73
2023/12/09 07:08:30;;;;;;;1.83;1.73;;;6.40;99.90;;;;;;5027808;28;20050;-74
2023/12/09 07:10:59;;;;;;;3.33;0.98;;;6.50;99.90;;;;;;5018012;28;20558;-73
2023/12/09 07:13:24;;;;;;;9.70;2.25;;;6.40;99.90;;;;;;5045895;28;20426;-73
2023/12/09 07:15:50;;;;;;;1.55;1.45;;;6.40;99.90;;;;;;5023558;28;20096;-73
2023/12/09 07:18:16;;;;;;;10.82;1.80;;;6.40;99.90;;;;;;5019393;28;20083;-73
2023/12/09 07:20:41;;;;;;;4.15;2.78;;;6.40;99.90;;;;;;5046092;28;20073;-73
2023/12/09 07:23:07;;;;;;;1.65;1.55;;;6.40;99.90;;;;;;5030665;28;20087;-73
2023/12/09 07:25:32;;;;;;;2.40;2.00;;;6.40;99.90;;;;;;5017490;28;20058;-73
2023/12/09 07:27:58;;;;;;;3.50;1.58;;;6.40;99.90;;;;;;5025152;28;20057;-73
2023/12/09 07:30:23;;;;;;;8.13;2.38;;;6.40;99.90;;;;;;5023533;28;20140;-74
2023/12/09 07:32:49;;;;;;;3.45;3.15;;;6.40;99.90;;;;;;5014095;28;20112;-73
2023/12/09 07:35:16;;;;;;;2.03;1.73;;;6.40;99.90;;;;;;5025856;28;20073;-73
2023/12/09 07:37:43;;;;;;;5.13;2.30;;;6.40;99.90;;;;;;5016684;28;20523;-73
2023/12/09 07:40:11;;;;;;;1.00;0.98;;;6.40;99.90;;;;;;5027959;28;20049;-73
2023/12/09 07:42:37;;;;;;;6.03;3.13;;;6.50;99.90;;;;;;5029401;28;20561;-74
2023/12/09 07:45:04;;;;;;;2.85;1.77;;;6.50;99.90;;;;;;5013935;28;20050;-73
2023/12/09 07:47:30;;;;;;;1.48;1.45;;;6.50;99.90;;;;;;5024719;28;20046;-73
2023/12/09 07:49:55;;;;;;;2.03;1.92;;;6.40;99.90;;;;;;5011717;28;20038;-74
2023/12/09 07:52:21;;;;;;;3.03;1.55;;;6.40;99.90;;;;;;5028774;28;20049;-73
2023/12/09 07:54:46;;;;;;;6.80;3.15;;;6.40;99.90;;;;;;5030953;28;20045;-74
2023/12/09 07:57:14;;;;;;;1.65;1.40;;;6.40;99.90;;;;;;5039013;28;20088;-73
2023/12/09 07:59:39;;;;;;;3.15;2.03;;;6.40;99.90;;;;;;5012668;28;20399;-73
2023/12/09 08:02:05;;;;;;;1.83;1.73;;;6.40;99.90;;;;;;5024499;28;20046;-73
2023/12/09 08:04:31;;;;;;;1.20;1.10;;;6.40;99.90;;;;;;5011906;28;20555;-73
2023/12/09 08:06:56;;;;;;;2.72;2.53;;;6.40;99.90;;;;;;5014938;28;20053;-73
2023/12/09 08:09:22;;;;;;;2.55;2.35;;;6.40;99.90;;;;;;5017541;28;20045;-74
2023/12/09 08:11:48;;;;;;;1.65;1.55;;;6.40;99.90;;;;;;5027854;28;20052;-73
2023/12/09 08:14:13;;;;;;;1.70;1.60;;;6.40;99.90;;;;;;5038152;28;20085;-73
2023/12/09 08:16:39;;;;;;;7.32;2.80;;;6.40;99.90;;;;;;5044300;28;20064;-73
2023/12/09 08:19:05;;;;;;;1.58;1.20;;;6.40;99.90;;;;;;5027957;28;20050;-73
2023/12/09 08:21:36;;;;;;;1.70;1.42;;;6.40;99.90;;;;;;5016143;28;20399;-73
2023/12/09 08:24:01;;;;;;;7.85;2.35;;;6.40;99.90;;;;;;5023962;28;20465;-73
2023/12/09 08:26:28;;;;;;;1.25;1.25;;;6.40;99.90;;;;;;5011417;28;20088;-74
2023/12/09 08:28:54;;;;;;;1.17;1.13;;;6.40;99.90;;;;;;5021666;28;20038;-73
2023/12/09 08:31:19;;;;;;;3.20;1.13;;;6.30;99.90;;;;;;5024724;28;20049;-73
2023/12/09 08:33:45;;;;;;;3.45;3.10;;;6.40;99.90;;;;;;5015813;28;20045;-73
2023/12/09 08:36:11;;;;;;;1.27;1.27;;;6.30;99.90;;;;;;5022824;28;20399;-73
2023/12/09 08:38:36;;;;;;;1.58;1.08;;;6.30;99.90;;;;;;5027658;28;20448;-73
2023/12/09 08:41:02;;;;;;;0.60;0.60;;;6.30;99.90;;;;;;5014923;28;20054;-73
2023/12/09 08:43:28;;;;;;;1.38;1.25;;;6.30;99.90;;;;;;5024080;28;20357;-73
2023/12/09 08:45:53;;;;;;;2.47;1.88;;;6.30;99.90;;;;;;5011953;28;20476;-73
2023/12/09 08:48:19;;;;;;;1.92;1.83;;;6.20;99.90;;;;;;5020112;28;20049;-73
2023/12/09 08:50:45;;;;;;;2.50;1.63;;;6.20;99.90;;;;;;5018466;28;20544;-73
2023/12/09 08:53:10;;;;;;;1.10;1.10;;;6.20;99.90;;;;;;5040672;28;20526;-73
2023/12/09 08:55:36;;;;;;;0.80;0.70;;;6.30;99.90;;;;;;5017932;28;20052;-73
2023/12/09 08:58:03;;;;;;;1.60;1.48;;;6.30;99.90;;;;;;5019941;28;20050;-73
2023/12/09 09:00:30;;;;;;;3.85;2.17;;;6.30;99.90;;;;;;5014623;28;20070;-73
2023/12/09 09:02:55;;;;;;;1.08;1.08;;;6.30;99.90;;;;;;5017651;28;20527;-73
2023/12/09 09:05:22;;;;;;;2.72;1.70;;;6.30;99.90;;;;;;5011578;28;20080;-73
2023/12/09 09:07:48;;;;;;;3.22;1.85;;;6.30;99.90;;;;;;5021782;28;20053;-73
2023/12/09 09:10:14;;;;;;;1.45;1.35;;;6.30;99.90;;;;;;5012614;28;20050;-73
2023/12/09 09:12:40;;;;;;;1.27;1.17;;;6.40;99.90;;;;;;5043227;28;20041;-73
2023/12/09 09:15:07;;;;;;;1.55;1.45;;;6.40;99.90;;;;;;5031452;28;20049;-73
2023/12/09 09:17:34;;;;;;;1.10;1.10;;;6.40;99.90;;;;;;5011992;28;20505;-73
2023/12/09 09:20:00;;;;;;;1.08;1.08;;;6.50;99.90;;;;;;5021014;28;20049;-73
2023/12/09 09:22:26;;;;;;;1.15;1.15;;;6.50;99.90;;;;;;5026815;28;20413;-74
2023/12/09 09:24:51;;;;;;;1.05;1.05;;;6.50;99.90;;;;;;5020940;28;20054;-73
2023/12/09 09:27:17;;;;;;;1.17;0.57;;;6.60;99.90;;;;;;5017516;28;20049;-73
2023/12/09 09:29:43;;;;;;;0.60;0.60;;;6.60;99.90;;;;;;5021197;28;20087;-73
2023/12/09 09:32:09;;;;;;;0.90;0.77;;;6.70;99.90;;;;;;5020591;28;20044;-73
2023/12/09 09:34:35;;;;;;;1.10;1.08;;;6.70;99.90;;;;;;5027058;28;20124;-73
2023/12/09 09:37:00;;;;;;;1.17;0.93;;;6.80;99.90;;;;;;5017302;28;20447;-73
2023/12/09 09:39:26;;;;;;;1.55;1.45;;;6.90;99.90;;;;;;5021860;28;20124;-73
2023/12/09 09:42:03;;;;;;;0.60;0.60;;;6.90;99.90;;;;;;5011068;28;20136;-73
2023/12/09 09:44:36;;;;;;;0.75;0.75;;;7.00;99.90;;;;;;5019963;28;20046;-73
2023/12/09 09:47:03;;;;;;;1.48;1.38;;;7.00;99.90;;;;;;5022576;28;20045;-73
2023/12/09 09:49:33;;;;;;;0.77;0.77;;;7.10;99.90;;;;;;5037838;28;20091;-73
2023/12/09 09:52:02;;;;;;;0.50;0.50;;;7.10;99.90;;;;;;5026945;28;20458;-73
2023/12/09 09:54:30;;;;;;;1.17;1.17;;;7.20;99.90;;;;;;5021606;28;20132;-73
2023/12/09 09:56:58;;;;;;;9.43;2.53;;;7.20;99.90;;;;;;5018392;28;20119;-73
2023/12/09 09:59:25;;;;;;;2.60;1.77;;;7.20;99.90;;;;;;5027928;28;20046;-73
2023/12/09 10:01:51;;;;;;;1.38;0.95;;;7.20;99.90;;;;;;5010280;28;20432;-73
2023/12/09 10:04:17;;;;;;;0.90;0.90;;;7.20;99.90;;;;;;5022929;28;20061;-73
2023/12/09 10:06:43;;;;;;;1.70;1.60;;;7.20;99.90;;;;;;5021943;28;20037;-73
2023/12/09 10:09:09;;;;;;;0.80;0.80;;;7.20;99.90;;;;;;5040499;28;20049;-73
2023/12/09 10:11:35;;;;;;;2.72;1.27;;;7.20;99.90;;;;;;5029783;28;20048;-73
2023/12/09 10:14:00;;;;;;;0.80;0.80;;;7.20;99.90;;;;;;5039038;28;20064;-73
2023/12/09 10:16:26;;;;;;;7.90;0.88;;;7.20;99.90;;;;;;5015454;28;20038;-73
2023/12/09 10:18:52;;;;;;;1.90;0.85;;;7.20;99.90;;;;;;5021228;28;20046;-73
2023/12/09 10:21:18;;;;;;;4.15;2.00;;;7.30;99.90;;;;;;5018168;28;20604;-73
2023/12/09 10:23:45;;;;;;;14.25;1.15;;;7.30;99.90;;;;;;5026532;28;20045;-73
2023/12/09 10:26:13;;;;;;;0.70;0.70;;;7.30;99.90;;;;;;5010911;28;20049;-73
2023/12/09 10:28:39;;;;;;;;;;;7.30;99.90;;;;;;5028192;28;20446;-73
2023/12/09 10:31:07;;;;;;;0.93;0.93;;;7.30;99.90;;;;;;5025539;28;19924;-73
2023/12/09 10:33:34;;;;;;;0.88;0.68;;;7.40;99.90;;;;;;5012683;28;20128;-73
2023/12/09 10:36:00;;;;;;;1.52;1.42;;;7.40;99.90;;;;;;5017389;28;20057;-73
2023/12/09 10:38:30;;;;;;;16.55;1.33;;;7.40;99.90;;;;;;5019538;28;20053;-72
2023/12/09 10:40:56;;;;;;;2.58;1.77;;;7.40;99.90;;;;;;5009758;28;20060;-72
2023/12/09 10:43:23;;;;;;;1.75;1.52;;;7.50;99.90;;;;;;5031718;28;20091;-72
2023/12/09 10:45:48;;;;;;;3.50;1.35;;;7.50;99.90;;;;;;5037980;28;20391;-73
2023/12/09 10:48:15;;;;;;;5.32;3.53;;;7.50;99.90;;;;;;5014238;28;20041;-73
2023/12/09 10:50:43;;;;;;;1.52;1.42;;;7.60;99.90;;;;;;5017179;28;20045;-73
2023/12/09 10:53:09;;;;;;;0.85;0.85;;;7.60;99.90;;;;;;5025906;28;20660;-73
2023/12/09 10:55:35;;;;;;;3.35;1.45;;;7.60;99.90;;;;;;5011567;28;20124;-73
2023/12/09 10:58:04;;;;;;;3.75;1.58;;;7.60;99.90;;;;;;5024462;28;20046;-72
2023/12/09 11:00:30;;;;;;;1.45;1.35;;;7.60;99.90;;;;;;5018510;28;20271;-73
2023/12/09 11:02:58;;;;;;;1.58;1.45;;;7.60;99.90;;;;;;5015602;28;20052;-73
2023/12/09 11:05:25;;;;;;;1.08;1.05;;;7.60;99.90;;;;;;5032144;28;20422;-73
2023/12/09 11:07:51;;;;;;;1.10;1.00;;;7.60;99.90;;;;;;5026624;28;20053;-73
2023/12/09 11:10:18;;;;;;;1.63;1.33;;;7.70;99.90;;;;;;5008416;28;20057;-73
2023/12/09 11:12:47;;;;;;;2.88;1.38;;;7.70;99.90;;;;;;5039073;28;20052;-73
2023/12/09 11:15:12;;;;;;;0.95;0.95;;;7.70;99.90;;;;;;5026846;28;20053;-72
2023/12/09 11:17:40;;;;;;;1.88;1.67;;;7.70;99.90;;;;;;5009641;28;20061;-73
2023/12/09 11:20:14;;;;;;;5.15;0.75;;;7.80;99.90;;;;;;5016727;28;20516;-73
2023/12/09 11:22:40;;;;;;;2.83;1.25;;;7.80;99.90;;;;;;5024924;28;20053;-72
2023/12/09 11:25:39;;;;;;;0.93;0.93;;;7.80;99.90;;;;;;5024373;28;20499;-73
2023/12/09 11:28:05;;;;;;;0.80;0.80;;;7.80;99.90;;;;;;5017474;28;20049;-73
2023/12/09 11:30:41;;;;;;;0.93;0.93;;;7.80;99.90;;;;;;5019310;28;20406;-73
2023/12/09 11:33:08;;;;;;;1.35;1.25;;;7.80;99.90;;;;;;5008980;28;20046;-73
2023/12/09 11:35:37;;;;;;;1.20;1.10;;;7.80;99.90;;;;;;5019155;28;20546;-73
2023/12/09 11:38:08;;;;;;;0.55;0.55;;;7.90;99.90;;;;;;5015484;28;20099;-73
2023/12/09 11:40:34;;;;;;;3.80;1.25;;;7.80;99.90;;;;;;5035087;28;20045;-74
2023/12/09 11:43:03;;;;;;;1.52;1.42;;;7.80;99.90;;;;;;5030117;28;20354;-72
2023/12/09 11:45:29;;;;;;;1.00;0.98;;;7.80;99.90;;;;;;5013636;28;20049;-73
2023/12/09 11:47:55;;;;;;;0.65;0.65;;;7.90;99.90;;;;;;5023274;28;20513;-73
2023/12/09 11:50:21;;;;;;;1.10;1.05;;;7.90;99.90;;;;;;5016821;28;20080;-73
2023/12/09 11:52:47;;;;;;;1.85;0.88;;;7.90;99.90;;;;;;5028951;28;20124;-73
2023/12/09 11:55:16;;;;;;;0.68;0.55;;;7.90;99.90;;;;;;5016242;28;20048;-73
2023/12/09 11:57:42;;;;;;;4.03;1.85;;;7.90;99.90;;;;;;5025266;28;20085;-72
2023/12/09 12:00:11;;;;;;;0.55;0.55;;;7.90;99.90;;;;;;5018988;28;20041;-73
2023/12/09 12:02:39;;;;;;;0.70;0.70;;;7.90;99.90;;;;;;5039621;28;20132;-73
2023/12/09 12:05:07;;;;;;;0.65;0.65;;;7.90;99.90;;;;;;5028407;28;20486;-72
2023/12/09 12:07:33;;;;;;;0.60;0.60;;;7.90;99.90;;;;;;5029638;28;20061;-73
2023/12/09 12:09:58;;;;;;;11.60;1.80;;;7.90;99.90;;;;;;5013216;28;20467;-72
2023/12/09 12:12:24;;;;;;;0.82;0.82;;;7.90;99.90;;;;;;5039167;28;20140;-72
2023/12/09 12:14:50;;;;;;;1.45;1.35;;;7.90;99.90;;;;;;5035047;28;20037;-73
2023/12/09 12:17:17;;;;;;;1.27;1.20;;;7.90;99.90;;;;;;5011834;28;20053;-73
2023/12/09 12:19:43;;;;;;;0.60;0.60;;;7.90;99.90;;;;;;5024744;28;20128;-73
2023/12/09 12:22:09;;;;;;;1.17;1.17;;;7.90;99.90;;;;;;5026777;28;20457;-72
2023/12/09 12:24:45;;;;;;;1.40;1.38;;;7.90;99.90;;;;;;5025614;28;20054;-73
2023/12/09 12:27:11;;;;;;;2.90;1.45;;;7.80;99.90;;;;;;5014545;28;20129;-72
2023/12/09 12:29:38;;;;;;;1.45;1.30;;;7.90;99.90;;;;;;5025676;28;20081;-72
2023/12/09 12:32:05;;;;;;;1.08;1.08;;;7.90;99.90;;;;;;5017774;28;20037;-73
2023/12/09 12:34:31;;;;;;;1.35;1.25;;;7.80;99.90;;;;;;5022056;28;20480;-72
2023/12/09 12:36:57;;;;;;;1.08;1.02;;;7.90;99.90;;;;;;5036125;28;20136;-72
2023/12/09 12:39:23;;;;;;;1.00;0.85;;;7.90;99.90;;;;;;5029979;28;20136;-72
2023/12/09 12:41:49;;;;;;;0.88;0.88;;;7.90;99.90;;;;;;5012028;28;20348;-72
2023/12/09 12:44:15;;;;;;;2.72;1.83;;;7.90;99.90;;;;;;5020127;28;20096;-73
2023/12/09 12:46:41;;;;;;;2.17;2.05;;;7.90;99.90;;;;;;5019041;28;20053;-73
2023/12/09 12:49:06;;;;;;;5.28;1.05;;;7.90;99.90;;;;;;5013708;28;20384;-72
2023/12/09 12:51:32;;;;;;;1.70;1.60;;;7.90;99.90;;;;;;5010535;28;20577;-72
2023/12/09 12:53:58;;;;;;;1.00;1.00;;;7.90;99.90;;;;;;5027608;28;20129;-73